sensor_id;sensor_type;location;lat;lon;timestamp;P1;durP1;ratioP1;P2;durP2;ratioP2
46222;SDS011;31943;51.410;7.564;2023-02-19T06:47:23;24.60;;;19.23;;
46222;SDS011;31943;51.410;7.564;2023-02-19T06:49:59;21.80;;;17.70;;
46222;SDS011;31943;51.410;7.564;2023-02-19T06:52:29;25.75;;;19.00;;
46222;SDS011;31943;51.410;7.564;2023-02-19T06:54:55;24.77;;;20.42;;
46222;SDS011;31943;51.410;7.564;2023-02-19T06:57:24;24.10;;;21.58;;
46222;SDS011;31943;51.410;7.564;2023-02-19T06:59:50;27.65;;;21.73;;
46222;SDS011;31943;51.410;7.564;2023-02-19T07:02:16;29.77;;;21.45;;
46222;SDS011;31943;51.410;7.564;2023-02-19T07:04:45;28.50;;;23.50;;
46222;SDS011;31943;51.410;7.564;2023-02-19T07:07:10;24.48;;;19.63;;
46222;SDS011;31943;51.410;7.564;2023-02-19T07:09:36;22.23;;;20.00;;
46222;SDS011;31943;51.410;7.564;2023-02-19T07:12:02;25.38;;;21.40;;
46222;SDS011;31943;51.410;7.564;2023-02-19T07:14:29;21.33;;;18.73;;
46222;SDS011;31943;51.410;7.564;2023-02-19T07:16:55;19.58;;;17.13;;
46222;SDS011;31943;51.410;7.564;2023-02-19T07:20:15;22.08;;;19.73;;
46222;SDS011;31943;51.410;7.564;2023-02-19T07:22:46;22.20;;;18.63;;
46222;SDS011;31943;51.410;7.564;2023-02-19T07:25:13;23.17;;;19.38;;
46222;SDS011;31943;51.410;7.564;2023-02-19T07:27:40;22.60;;;19.33;;
46222;SDS011;31943;51.410;7.564;2023-02-19T07:30:06;24.10;;;19.30;;
46222;SDS011;31943;51.410;7.564;2023-02-19T07:32:32;20.40;;;17.73;;
46222;SDS011;31943;51.410;7.564;2023-02-19T07:34:57;20.42;;;18.25;;
46222;SDS011;31943;51.410;7.564;2023-02-19T07:37:25;24.08;;;19.90;;
46222;SDS011;31943;51.410;7.564;2023-02-19T07:39:50;21.40;;;17.48;;
46222;SDS011;31943;51.410;7.564;2023-02-19T07:42:16;21.85;;;18.38;;
46222;SDS011;31943;51.410;7.564;2023-02-19T07:44:42;21.60;;;18.48;;
46222;SDS011;31943;51.410;7.564;2023-02-19T07:47:08;26.17;;;19.08;;
46222;SDS011;31943;51.410;7.564;2023-02-19T07:49:38;23.40;;;18.23;;
46222;SDS011;31943;51.410;7.564;2023-02-19T07:52:04;21.55;;;16.65;;
46222;SDS011;31943;51.410;7.564;2023-02-19T07:54:31;18.08;;;14.27;;
46222;SDS011;31943;51.410;7.564;2023-02-19T07:56:56;21.13;;;15.70;;
46222;SDS011;31943;51.410;7.564;2023-02-19T07:59:25;21.58;;;16.88;;
46222;SDS011;31943;51.410;7.564;2023-02-19T08:01:51;17.90;;;15.95;;
46222;SDS011;31943;51.410;7.564;2023-02-19T08:04:16;21.58;;;15.98;;
46222;SDS011;31943;51.410;7.564;2023-02-19T08:06:42;18.25;;;15.05;;
46222;SDS011;31943;51.410;7.564;2023-02-19T08:09:13;24.23;;;18.77;;
46222;SDS011;31943;51.410;7.564;2023-02-19T08:11:57;20.58;;;17.42;;
46222;SDS011;31943;51.410;7.564;2023-02-19T08:14:23;18.30;;;16.50;;
46222;SDS011;31943;51.410;7.564;2023-02-19T08:16:54;18.85;;;16.45;;
46222;SDS011;31943;51.410;7.564;2023-02-19T08:19:20;17.23;;;15.43;;
46222;SDS011;31943;51.410;7.564;2023-02-19T08:21:47;20.60;;;14.93;;
46222;SDS011;31943;51.410;7.564;2023-02-19T08:24:35;14.93;;;13.38;;
46222;SDS011;31943;51.410;7.564;2023-02-19T08:27:03;19.70;;;14.32;;
46222;SDS011;31943;51.410;7.564;2023-02-19T08:29:28;17.85;;;16.05;;
46222;SDS011;31943;51.410;7.564;2023-02-19T08:31:54;20.35;;;16.77;;
46222;SDS011;31943;51.410;7.564;2023-02-19T08:34:19;21.52;;;16.02;;
46222;SDS011;31943;51.410;7.564;2023-02-19T08:36:45;17.35;;;13.82;;
46222;SDS011;31943;51.410;7.564;2023-02-19T08:39:12;14.65;;;13.07;;
46222;SDS011;31943;51.410;7.564;2023-02-19T08:41:38;17.98;;;14.77;;
46222;SDS011;31943;51.410;7.564;2023-02-19T08:44:09;19.33;;;14.85;;
46222;SDS011;31943;51.410;7.564;2023-02-19T08:46:36;15.73;;;14.07;;
46222;SDS011;31943;51.410;7.564;2023-02-19T08:49:05;17.52;;;14.32;;
46222;SDS011;31943;51.410;7.564;2023-02-19T08:51:30;16.27;;;12.68;;
46222;SDS011;31943;51.410;7.564;2023-02-19T08:53:56;16.85;;;11.80;;
46222;SDS011;31943;51.410;7.564;2023-02-19T08:56:29;13.68;;;11.65;;
46222;SDS011;31943;51.410;7.564;2023-02-19T08:58:58;17.58;;;10.80;;
46222;SDS011;31943;51.410;7.564;2023-02-19T09:01:26;14.27;;;10.30;;
46222;SDS011;31943;51.410;7.564;2023-02-19T09:03:52;16.80;;;10.00;;
46222;SDS011;31943;51.410;7.564;2023-02-19T09:06:19;13.65;;;10.23;;
46222;SDS011;31943;51.410;7.564;2023-02-19T09:08:45;13.23;;;10.00;;
46222;SDS011;31943;51.410;7.564;2023-02-19T09:11:12;14.52;;;9.98;;
46222;SDS011;31943;51.410;7.564;2023-02-19T09:13:38;13.50;;;10.90;;
46222;SDS011;31943;51.410;7.564;2023-02-19T09:16:04;13.60;;;10.85;;
46222;SDS011;31943;51.410;7.564;2023-02-19T09:18:31;15.90;;;10.50;;
46222;SDS011;31943;51.410;7.564;2023-02-19T09:20:58;17.83;;;10.98;;
46222;SDS011;31943;51.410;7.564;2023-02-19T09:23:24;16.88;;;11.43;;
46222;SDS011;31943;51.410;7.564;2023-02-19T09:25:55;19.40;;;12.85;;
46222;SDS011;31943;51.410;7.564;2023-02-19T09:28:21;17.10;;;14.43;;
46222;SDS011;31943;51.410;7.564;2023-02-19T09:30:46;21.17;;;14.90;;
46222;SDS011;31943;51.410;7.564;2023-02-19T09:33:12;21.00;;;15.70;;
46222;SDS011;31943;51.410;7.564;2023-02-19T09:35:39;21.10;;;15.70;;
46222;SDS011;31943;51.410;7.564;2023-02-19T09:38:05;21.73;;;16.65;;
46222;SDS011;31943;51.410;7.564;2023-02-19T09:40:30;21.17;;;16.75;;
46222;SDS011;31943;51.410;7.564;2023-02-19T09:42:56;20.13;;;15.70;;
46222;SDS011;31943;51.410;7.564;2023-02-19T09:45:23;22.02;;;16.45;;
46222;SDS011;31943;51.410;7.564;2023-02-19T09:47:52;20.55;;;15.77;;
46222;SDS011;31943;51.410;7.564;2023-02-19T09:50:20;18.73;;;15.60;;
46222;SDS011;31943;51.410;7.564;2023-02-19T09:52:51;21.80;;;15.95;;
46222;SDS011;31943;51.410;7.564;2023-02-19T09:55:22;20.10;;;15.17;;
46222;SDS011;31943;51.410;7.564;2023-02-19T09:57:55;21.35;;;15.88;;
46222;SDS011;31943;51.410;7.564;2023-02-19T10:00:22;21.70;;;16.50;;
46222;SDS011;31943;51.410;7.564;2023-02-19T10:02:50;20.60;;;18.27;;
46222;SDS011;31943;51.410;7.564;2023-02-19T10:05:17;23.20;;;18.60;;
46222;SDS011;31943;51.410;7.564;2023-02-19T10:07:45;28.70;;;19.90;;
46222;SDS011;31943;51.410;7.564;2023-02-19T10:10:25;27.20;;;18.88;;
46222;SDS011;31943;51.410;7.564;2023-02-19T10:12:55;24.60;;;18.63;;
46222;SDS011;31943;51.410;7.564;2023-02-19T10:15:36;22.92;;;16.73;;
46222;SDS011;31943;51.410;7.564;2023-02-19T10:18:04;21.10;;;15.88;;
46222;SDS011;31943;51.410;7.564;2023-02-19T10:20:31;20.95;;;16.17;;
46222;SDS011;31943;51.410;7.564;2023-02-19T10:22:59;22.02;;;17.23;;
46222;SDS011;31943;51.410;7.564;2023-02-19T10:25:31;25.02;;;18.92;;
46222;SDS011;31943;51.410;7.564;2023-02-19T10:27:59;25.55;;;19.20;;
46222;SDS011;31943;51.410;7.564;2023-02-19T10:30:27;23.02;;;18.55;;
46222;SDS011;31943;51.410;7.564;2023-02-19T10:32:59;21.13;;;17.30;;
46222;SDS011;31943;51.410;7.564;2023-02-19T10:37:55;22.00;;;17.48;;
46222;SDS011;31943;51.410;7.564;2023-02-19T10:40:22;18.33;;;15.25;;
46222;SDS011;31943;51.410;7.564;2023-02-19T10:42:53;15.70;;;11.60;;
46222;SDS011;31943;51.410;7.564;2023-02-19T10:45:21;15.80;;;11.68;;
46222;SDS011;31943;51.410;7.564;2023-02-19T10:47:50;14.30;;;10.27;;
46222;SDS011;31943;51.410;7.564;2023-02-19T10:50:19;11.77;;;9.82;;
46222;SDS011;31943;51.410;7.564;2023-02-19T10:52:51;18.77;;;9.45;;
46222;SDS011;31943;51.410;7.564;2023-02-19T10:55:23;10.35;;;9.25;;
46222;SDS011;31943;51.410;7.564;2023-02-19T10:57:52;10.38;;;7.97;;
46222;SDS011;31943;51.410;7.564;2023-02-19T11:00:19;9.40;;;7.72;;
46222;SDS011;31943;51.410;7.564;2023-02-19T11:03:12;8.57;;;6.60;;
46222;SDS011;31943;51.410;7.564;2023-02-19T11:05:50;9.80;;;5.72;;
46222;SDS011;31943;51.410;7.564;2023-02-19T11:08:22;6.47;;;5.20;;
46222;SDS011;31943;51.410;7.564;2023-02-19T11:10:54;7.68;;;5.40;;
46222;SDS011;31943;51.410;7.564;2023-02-19T11:16:13;5.60;;;5.07;;
